sensor_id;sensor_type;location;lat;lon;timestamp;P1;durP1;ratioP1;P2;durP2;ratioP2
17852;SDS011;9052;53.494;14.376;2023-07-13T00:00:35;10.23;;;4.20;;
17852;SDS011;9052;53.494;14.376;2023-07-13T00:03:02;6.93;;;4.57;;
17852;SDS011;9052;53.494;14.376;2023-07-13T00:05:29;7.17;;;4.67;;
17852;SDS011;9052;53.494;14.376;2023-07-13T00:07:58;4.87;;;4.53;;
17852;SDS011;9052;53.494;14.376;2023-07-13T00:10:25;5.60;;;4.73;;
17852;SDS011;9052;53.494;14.376;2023-07-13T00:12:52;4.80;;;4.40;;
17852;SDS011;9052;53.494;14.376;2023-07-13T00:15:21;6.20;;;5.60;;
17852;SDS011;9052;53.494;14.376;2023-07-13T00:17:49;5.60;;;5.03;;
17852;SDS011;9052;53.494;14.376;2023-07-13T00:20:16;14.20;;;5.23;;
17852;SDS011;9052;53.494;14.376;2023-07-13T00:22:43;4.97;;;4.57;;
17852;SDS011;9052;53.494;14.376;2023-07-13T00:25:11;4.80;;;4.37;;
17852;SDS011;9052;53.494;14.376;2023-07-13T00:27:38;7.83;;;5.00;;
17852;SDS011;9052;53.494;14.376;2023-07-13T00:30:06;6.80;;;5.40;;
17852;SDS011;9052;53.494;14.376;2023-07-13T00:32:34;5.27;;;4.87;;
17852;SDS011;9052;53.494;14.376;2023-07-13T00:35:01;8.13;;;4.60;;
17852;SDS011;9052;53.494;14.376;2023-07-13T00:37:29;5.00;;;4.37;;
17852;SDS011;9052;53.494;14.376;2023-07-13T00:39:56;12.60;;;4.90;;
17852;SDS011;9052;53.494;14.376;2023-07-13T00:42:25;9.20;;;5.50;;
17852;SDS011;9052;53.494;14.376;2023-07-13T00:45:05;6.00;;;5.00;;
17852;SDS011;9052;53.494;14.376;2023-07-13T00:47:34;4.97;;;4.47;;
17852;SDS011;9052;53.494;14.376;2023-07-13T00:50:00;10.10;;;4.30;;
17852;SDS011;9052;53.494;14.376;2023-07-13T00:52:29;8.03;;;4.43;;
17852;SDS011;9052;53.494;14.376;2023-07-13T00:54:56;5.53;;;4.17;;
17852;SDS011;9052;53.494;14.376;2023-07-13T00:57:25;6.90;;;4.60;;
17852;SDS011;9052;53.494;14.376;2023-07-13T00:59:54;21.43;;;5.20;;
17852;SDS011;9052;53.494;14.376;2023-07-13T01:02:22;5.17;;;4.47;;
17852;SDS011;9052;53.494;14.376;2023-07-13T01:04:49;7.60;;;4.17;;
17852;SDS011;9052;53.494;14.376;2023-07-13T01:07:16;5.23;;;4.70;;
17852;SDS011;9052;53.494;14.376;2023-07-13T01:09:45;7.20;;;4.67;;
17852;SDS011;9052;53.494;14.376;2023-07-13T01:12:12;4.50;;;4.10;;
17852;SDS011;9052;53.494;14.376;2023-07-13T01:14:40;6.03;;;4.00;;
17852;SDS011;9052;53.494;14.376;2023-07-13T01:17:08;6.17;;;4.30;;
17852;SDS011;9052;53.494;14.376;2023-07-13T01:19:36;4.70;;;3.93;;
17852;SDS011;9052;53.494;14.376;2023-07-13T01:22:07;7.40;;;4.50;;
17852;SDS011;9052;53.494;14.376;2023-07-13T01:24:36;15.47;;;3.60;;
17852;SDS011;9052;53.494;14.376;2023-07-13T01:27:05;9.83;;;3.67;;
17852;SDS011;9052;53.494;14.376;2023-07-13T01:29:34;7.00;;;4.10;;
17852;SDS011;9052;53.494;14.376;2023-07-13T01:32:07;8.23;;;3.80;;
17852;SDS011;9052;53.494;14.376;2023-07-13T01:34:35;19.87;;;4.83;;
17852;SDS011;9052;53.494;14.376;2023-07-13T01:37:03;3.83;;;3.53;;
17852;SDS011;9052;53.494;14.376;2023-07-13T01:39:32;3.83;;;3.53;;
17852;SDS011;9052;53.494;14.376;2023-07-13T01:41:59;4.10;;;3.30;;
17852;SDS011;9052;53.494;14.376;2023-07-13T01:44:26;7.40;;;4.23;;
17852;SDS011;9052;53.494;14.376;2023-07-13T01:46:53;6.17;;;3.50;;
17852;SDS011;9052;53.494;14.376;2023-07-13T01:49:20;3.40;;;3.10;;
17852;SDS011;9052;53.494;14.376;2023-07-13T01:51:47;4.13;;;3.80;;
17852;SDS011;9052;53.494;14.376;2023-07-13T01:54:14;3.57;;;3.27;;
17852;SDS011;9052;53.494;14.376;2023-07-13T01:56:43;7.03;;;4.33;;
17852;SDS011;9052;53.494;14.376;2023-07-13T01:59:10;8.20;;;4.60;;
17852;SDS011;9052;53.494;14.376;2023-07-13T02:01:37;53.33;;;32.77;;
17852;SDS011;9052;53.494;14.376;2023-07-13T02:04:04;81.20;;;42.90;;
17852;SDS011;9052;53.494;14.376;2023-07-13T02:06:31;52.70;;;35.33;;
17852;SDS011;9052;53.494;14.376;2023-07-13T02:08:58;53.03;;;29.33;;
17852;SDS011;9052;53.494;14.376;2023-07-13T02:11:25;55.37;;;33.37;;
17852;SDS011;9052;53.494;14.376;2023-07-13T02:13:58;25.80;;;18.20;;
17852;SDS011;9052;53.494;14.376;2023-07-13T02:16:26;32.90;;;17.17;;
17852;SDS011;9052;53.494;14.376;2023-07-13T02:18:53;29.80;;;18.77;;
17852;SDS011;9052;53.494;14.376;2023-07-13T02:21:21;25.43;;;15.20;;
17852;SDS011;9052;53.494;14.376;2023-07-13T02:23:48;25.43;;;15.53;;
17852;SDS011;9052;53.494;14.376;2023-07-13T02:26:15;29.70;;;15.00;;
17852;SDS011;9052;53.494;14.376;2023-07-13T02:28:43;37.13;;;13.57;;
17852;SDS011;9052;53.494;14.376;2023-07-13T02:31:13;21.57;;;13.40;;
17852;SDS011;9052;53.494;14.376;2023-07-13T02:33:41;15.10;;;10.77;;
17852;SDS011;9052;53.494;14.376;2023-07-13T02:36:08;12.70;;;9.27;;
17852;SDS011;9052;53.494;14.376;2023-07-13T02:38:35;18.77;;;12.67;;
17852;SDS011;9052;53.494;14.376;2023-07-13T02:41:03;20.83;;;12.13;;
17852;SDS011;9052;53.494;14.376;2023-07-13T02:43:30;17.30;;;10.00;;
17852;SDS011;9052;53.494;14.376;2023-07-13T02:45:58;10.67;;;8.57;;
17852;SDS011;9052;53.494;14.376;2023-07-13T02:48:30;13.60;;;8.80;;
17852;SDS011;9052;53.494;14.376;2023-07-13T02:50:57;17.03;;;8.00;;
17852;SDS011;9052;53.494;14.376;2023-07-13T02:53:24;8.23;;;7.43;;
17852;SDS011;9052;53.494;14.376;2023-07-13T02:55:52;10.20;;;6.17;;
17852;SDS011;9052;53.494;14.376;2023-07-13T02:58:19;10.83;;;5.13;;
17852;SDS011;9052;53.494;14.376;2023-07-13T03:00:46;5.20;;;4.50;;
17852;SDS011;9052;53.494;14.376;2023-07-13T03:03:15;5.93;;;4.80;;
17852;SDS011;9052;53.494;14.376;2023-07-13T03:05:44;4.80;;;4.30;;
17852;SDS011;9052;53.494;14.376;2023-07-13T03:08:15;8.00;;;4.90;;
17852;SDS011;9052;53.494;14.376;2023-07-13T03:10:43;8.43;;;4.57;;
17852;SDS011;9052;53.494;14.376;2023-07-13T03:13:10;5.60;;;4.87;;
17852;SDS011;9052;53.494;14.376;2023-07-13T03:15:37;8.90;;;4.90;;
17852;SDS011;9052;53.494;14.376;2023-07-13T03:18:03;20.97;;;4.50;;
17852;SDS011;9052;53.494;14.376;2023-07-13T03:20:32;4.40;;;4.00;;
17852;SDS011;9052;53.494;14.376;2023-07-13T03:23:00;4.20;;;3.80;;
17852;SDS011;9052;53.494;14.376;2023-07-13T03:25:28;6.00;;;4.10;;
17852;SDS011;9052;53.494;14.376;2023-07-13T03:27:55;4.80;;;4.40;;
17852;SDS011;9052;53.494;14.376;2023-07-13T03:30:22;8.33;;;4.60;;
17852;SDS011;9052;53.494;14.376;2023-07-13T03:32:49;8.00;;;4.97;;
17852;SDS011;9052;53.494;14.376;2023-07-13T03:35:16;8.27;;;4.93;;
17852;SDS011;9052;53.494;14.376;2023-07-13T03:37:43;5.87;;;4.73;;
17852;SDS011;9052;53.494;14.376;2023-07-13T03:40:12;7.53;;;5.10;;
17852;SDS011;9052;53.494;14.376;2023-07-13T03:42:39;15.60;;;5.93;;
17852;SDS011;9052;53.494;14.376;2023-07-13T03:45:07;4.20;;;3.90;;
17852;SDS011;9052;53.494;14.376;2023-07-13T03:47:34;7.93;;;4.67;;
17852;SDS011;9052;53.494;14.376;2023-07-13T03:50:02;4.80;;;4.13;;
17852;SDS011;9052;53.494;14.376;2023-07-13T03:52:29;7.47;;;4.30;;
17852;SDS011;9052;53.494;14.376;2023-07-13T03:54:56;5.93;;;3.10;;
17852;SDS011;9052;53.494;14.376;2023-07-13T03:57:25;11.10;;;4.13;;
17852;SDS011;9052;53.494;14.376;2023-07-13T03:59:52;7.13;;;3.40;;
17852;SDS011;9052;53.494;14.376;2023-07-13T04:02:20;5.93;;;3.20;;
17852;SDS011;9052;53.494;14.376;2023-07-13T04:04:47;6.20;;;2.70;;
17852;SDS011;9052;53.494;14.376;2023-07-13T04:07:14;4.00;;;2.43;;
17852;SDS011;9052;53.494;14.376;2023-07-13T04:09:41;3.10;;;2.80;;
17852;SDS011;9052;53.494;14.376;2023-07-13T04:12:08;3.10;;;2.50;;
17852;SDS011;9052;53.494;14.376;2023-07-13T04:14:37;2.70;;;2.50;;
17852;SDS011;9052;53.494;14.376;2023-07-13T04:17:04;2.87;;;2.60;;
17852;SDS011;9052;53.494;14.376;2023-07-13T04:19:31;3.27;;;2.50;;
17852;SDS011;9052;53.494;14.376;2023-07-13T04:21:58;5.40;;;2.37;;
17852;SDS011;9052;53.494;14.376;2023-07-13T04:24:25;3.17;;;2.33;;
17852;SDS011;9052;53.494;14.376;2023-07-13T04:26:52;16.30;;;2.00;;
17852;SDS011;9052;53.494;14.376;2023-07-13T04:29:19;2.23;;;2.10;;
17852;SDS011;9052;53.494;14.376;2023-07-13T04:31:48;4.60;;;2.03;;
17852;SDS011;9052;53.494;14.376;2023-07-13T04:34:14;3.23;;;1.50;;
17852;SDS011;9052;53.494;14.376;2023-07-13T04:36:42;4.23;;;1.77;;
17852;SDS011;9052;53.494;14.376;2023-07-13T04:39:09;2.70;;;1.70;;
17852;SDS011;9052;53.494;14.376;2023-07-13T04:41:36;1.53;;;1.43;;
17852;SDS011;9052;53.494;14.376;2023-07-13T04:44:03;6.27;;;1.57;;
17852;SDS011;9052;53.494;14.376;2023-07-13T04:46:30;4.87;;;1.50;;
17852;SDS011;9052;53.494;14.376;2023-07-13T04:48:58;2.70;;;1.63;;
17852;SDS011;9052;53.494;14.376;2023-07-13T04:51:26;4.60;;;1.60;;
17852;SDS011;9052;53.494;14.376;2023-07-13T04:53:53;3.27;;;2.03;;
17852;SDS011;9052;53.494;14.376;2023-07-13T04:56:20;7.23;;;2.07;;
17852;SDS011;9052;53.494;14.376;2023-07-13T04:58:47;2.63;;;1.20;;
17852;SDS011;9052;53.494;14.376;2023-07-13T05:01:13;3.97;;;1.40;;
17852;SDS011;9052;53.494;14.376;2023-07-13T05:03:40;3.40;;;1.20;;
17852;SDS011;9052;53.494;14.376;2023-07-13T05:06:09;3.00;;;1.50;;
17852;SDS011;9052;53.494;14.376;2023-07-13T05:08:36;2.30;;;1.40;;
17852;SDS011;9052;53.494;14.376;2023-07-13T05:11:04;3.17;;;1.70;;
17852;SDS011;9052;53.494;14.376;2023-07-13T05:13:32;5.73;;;1.60;;
17852;SDS011;9052;53.494;14.376;2023-07-13T05:15:59;2.87;;;1.37;;
17852;SDS011;9052;53.494;14.376;2023-07-13T05:18:28;4.30;;;1.20;;
17852;SDS011;9052;53.494;14.376;2023-07-13T05:20:58;2.13;;;1.00;;
17852;SDS011;9052;53.494;14.376;2023-07-13T05:23:27;3.87;;;1.27;;
17852;SDS011;9052;53.494;14.376;2023-07-13T05:25:55;1.40;;;1.23;;
17852;SDS011;9052;53.494;14.376;2023-07-13T05:28:22;8.13;;;1.20;;
17852;SDS011;9052;53.494;14.376;2023-07-13T05:30:49;1.40;;;1.13;;
17852;SDS011;9052;53.494;14.376;2023-07-13T05:33:17;3.17;;;1.10;;
17852;SDS011;9052;53.494;14.376;2023-07-13T05:35:43;6.83;;;1.60;;
17852;SDS011;9052;53.494;14.376;2023-07-13T05:38:11;3.80;;;1.37;;
17852;SDS011;9052;53.494;14.376;2023-07-13T05:40:39;3.10;;;1.73;;
17852;SDS011;9052;53.494;14.376;2023-07-13T05:43:08;2.47;;;1.20;;
17852;SDS011;9052;53.494;14.376;2023-07-13T05:45:35;3.80;;;1.30;;
17852;SDS011;9052;53.494;14.376;2023-07-13T05:48:02;3.83;;;1.47;;
17852;SDS011;9052;53.494;14.376;2023-07-13T05:50:29;1.50;;;0.97;;
17852;SDS011;9052;53.494;14.376;2023-07-13T05:52:57;2.77;;;1.07;;
17852;SDS011;9052;53.494;14.376;2023-07-13T05:55:23;2.20;;;1.03;;
17852;SDS011;9052;53.494;14.376;2023-07-13T05:57:52;1.93;;;1.40;;
17852;SDS011;9052;53.494;14.376;2023-07-13T06:00:19;1.57;;;0.97;;
17852;SDS011;9052;53.494;14.376;2023-07-13T06:02:46;2.23;;;1.43;;
17852;SDS011;9052;53.494;14.376;2023-07-13T06:05:13;1.70;;;1.10;;
17852;SDS011;9052;53.494;14.376;2023-07-13T06:07:40;3.57;;;1.77;;
17852;SDS011;9052;53.494;14.376;2023-07-13T06:10:07;5.63;;;1.43;;
17852;SDS011;9052;53.494;14.376;2023-07-13T06:12:35;2.50;;;1.20;;
17852;SDS011;9052;53.494;14.376;2023-07-13T06:15:04;2.00;;;1.50;;
17852;SDS011;9052;53.494;14.376;2023-07-13T06:17:32;4.10;;;1.20;;
17852;SDS011;9052;53.494;14.376;2023-07-13T06:19:59;5.53;;;1.50;;
17852;SDS011;9052;53.494;14.376;2023-07-13T06:22:26;12.87;;;1.67;;
17852;SDS011;9052;53.494;14.376;2023-07-13T06:24:53;2.30;;;1.27;;
17852;SDS011;9052;53.494;14.376;2023-07-13T06:27:20;2.80;;;1.13;;
17852;SDS011;9052;53.494;14.376;2023-07-13T06:29:47;3.23;;;1.57;;
17852;SDS011;9052;53.494;14.376;2023-07-13T06:32:16;4.20;;;1.03;;
17852;SDS011;9052;53.494;14.376;2023-07-13T06:34:42;2.33;;;1.33;;
17852;SDS011;9052;53.494;14.376;2023-07-13T06:37:10;1.57;;;1.07;;
17852;SDS011;9052;53.494;14.376;2023-07-13T06:39:37;2.13;;;1.00;;
17852;SDS011;9052;53.494;14.376;2023-07-13T06:42:04;4.10;;;1.30;;
17852;SDS011;9052;53.494;14.376;2023-07-13T06:44:32;12.70;;;1.40;;
17852;SDS011;9052;53.494;14.376;2023-07-13T06:46:58;5.00;;;1.00;;
17852;SDS011;9052;53.494;14.376;2023-07-13T06:49:27;5.53;;;1.17;;
17852;SDS011;9052;53.494;14.376;2023-07-13T06:51:54;2.30;;;1.13;;
17852;SDS011;9052;53.494;14.376;2023-07-13T06:54:20;4.97;;;1.10;;
17852;SDS011;9052;53.494;14.376;2023-07-13T06:56:47;4.90;;;1.60;;
17852;SDS011;9052;53.494;14.376;2023-07-13T06:59:14;1.60;;;0.90;;
17852;SDS011;9052;53.494;14.376;2023-07-13T07:01:41;1.83;;;0.97;;
17852;SDS011;9052;53.494;14.376;2023-07-13T07:04:08;2.70;;;1.30;;
17852;SDS011;9052;53.494;14.376;2023-07-13T07:06:37;3.13;;;1.30;;
17852;SDS011;9052;53.494;14.376;2023-07-13T07:09:03;1.23;;;0.70;;
17852;SDS011;9052;53.494;14.376;2023-07-13T07:11:30;4.60;;;1.40;;
17852;SDS011;9052;53.494;14.376;2023-07-13T07:13:57;1.70;;;1.20;;
17852;SDS011;9052;53.494;14.376;2023-07-13T07:16:24;1.43;;;0.80;;
17852;SDS011;9052;53.494;14.376;2023-07-13T07:18:51;4.53;;;1.30;;
17852;SDS011;9052;53.494;14.376;2023-07-13T07:21:18;1.53;;;0.90;;
17852;SDS011;9052;53.494;14.376;2023-07-13T07:23:49;6.50;;;1.10;;
17852;SDS011;9052;53.494;14.376;2023-07-13T07:26:16;1.17;;;1.00;;
17852;SDS011;9052;53.494;14.376;2023-07-13T07:28:43;1.10;;;0.93;;
17852;SDS011;9052;53.494;14.376;2023-07-13T07:31:10;2.27;;;1.10;;
17852;SDS011;9052;53.494;14.376;2023-07-13T07:33:36;4.77;;;1.03;;
17852;SDS011;9052;53.494;14.376;2023-07-13T07:36:03;5.50;;;0.97;;
17852;SDS011;9052;53.494;14.376;2023-07-13T07:38:30;1.37;;;0.93;;
17852;SDS011;9052;53.494;14.376;2023-07-13T07:41:00;3.93;;;0.87;;
17852;SDS011;9052;53.494;14.376;2023-07-13T07:43:29;3.30;;;1.10;;
17852;SDS011;9052;53.494;14.376;2023-07-13T07:45:56;3.33;;;1.30;;
17852;SDS011;9052;53.494;14.376;2023-07-13T07:48:23;4.60;;;1.07;;
17852;SDS011;9052;53.494;14.376;2023-07-13T07:50:50;1.73;;;0.80;;
17852;SDS011;9052;53.494;14.376;2023-07-13T07:53:17;1.80;;;0.90;;
17852;SDS011;9052;53.494;14.376;2023-07-13T07:55:44;2.70;;;0.77;;
17852;SDS011;9052;53.494;14.376;2023-07-13T07:58:12;1.27;;;0.90;;
17852;SDS011;9052;53.494;14.376;2023-07-13T08:00:39;2.13;;;1.07;;
17852;SDS011;9052;53.494;14.376;2023-07-13T08:03:06;1.20;;;1.10;;
17852;SDS011;9052;53.494;14.376;2023-07-13T08:05:34;2.33;;;1.27;;
17852;SDS011;9052;53.494;14.376;2023-07-13T08:08:02;2.30;;;1.67;;
17852;SDS011;9052;53.494;14.376;2023-07-13T08:10:29;3.63;;;1.10;;
17852;SDS011;9052;53.494;14.376;2023-07-13T08:12:56;1.43;;;0.77;;
17852;SDS011;9052;53.494;14.376;2023-07-13T08:15:24;9.13;;;1.43;;
17852;SDS011;9052;53.494;14.376;2023-07-13T08:17:51;2.37;;;1.07;;
17852;SDS011;9052;53.494;14.376;2023-07-13T08:20:20;1.90;;;1.17;;
17852;SDS011;9052;53.494;14.376;2023-07-13T08:22:47;10.60;;;1.90;;
17852;SDS011;9052;53.494;14.376;2023-07-13T08:25:14;6.93;;;1.27;;
17852;SDS011;9052;53.494;14.376;2023-07-13T08:27:41;4.93;;;1.00;;
17852;SDS011;9052;53.494;14.376;2023-07-13T08:30:08;1.57;;;0.90;;
17852;SDS011;9052;53.494;14.376;2023-07-13T08:32:37;0.97;;;0.80;;
17852;SDS011;9052;53.494;14.376;2023-07-13T08:35:04;4.70;;;1.20;;
17852;SDS011;9052;53.494;14.376;2023-07-13T08:37:32;1.77;;;0.93;;
17852;SDS011;9052;53.494;14.376;2023-07-13T08:39:59;3.23;;;0.97;;
17852;SDS011;9052;53.494;14.376;2023-07-13T08:42:29;1.27;;;0.70;;
17852;SDS011;9052;53.494;14.376;2023-07-13T08:45:02;3.00;;;1.30;;
17852;SDS011;9052;53.494;14.376;2023-07-13T08:47:38;1.80;;;0.90;;
17852;SDS011;9052;53.494;14.376;2023-07-13T08:50:09;2.83;;;0.90;;
17852;SDS011;9052;53.494;14.376;2023-07-13T08:52:38;4.60;;;1.30;;
17852;SDS011;9052;53.494;14.376;2023-07-13T08:55:10;8.10;;;1.10;;
17852;SDS011;9052;53.494;14.376;2023-07-13T08:57:39;2.80;;;0.97;;
17852;SDS011;9052;53.494;14.376;2023-07-13T09:00:09;2.03;;;1.00;;
17852;SDS011;9052;53.494;14.376;2023-07-13T09:02:40;6.73;;;1.10;;
17852;SDS011;9052;53.494;14.376;2023-07-13T09:05:12;4.40;;;0.90;;
17852;SDS011;9052;53.494;14.376;2023-07-13T09:07:45;13.27;;;1.40;;
17852;SDS011;9052;53.494;14.376;2023-07-13T09:10:23;1.93;;;1.10;;
17852;SDS011;9052;53.494;14.376;2023-07-13T09:12:59;9.83;;;1.90;;
17852;SDS011;9052;53.494;14.376;2023-07-13T09:15:34;11.53;;;1.10;;
17852;SDS011;9052;53.494;14.376;2023-07-13T09:18:07;6.17;;;1.10;;
17852;SDS011;9052;53.494;14.376;2023-07-13T09:20:37;29.73;;;1.03;;
17852;SDS011;9052;53.494;14.376;2023-07-13T09:23:07;5.30;;;0.80;;
17852;SDS011;9052;53.494;14.376;2023-07-13T09:25:38;27.97;;;1.90;;
17852;SDS011;9052;53.494;14.376;2023-07-13T09:28:09;6.87;;;1.17;;
17852;SDS011;9052;53.494;14.376;2023-07-13T09:30:38;3.77;;;1.07;;
17852;SDS011;9052;53.494;14.376;2023-07-13T09:33:14;6.87;;;1.13;;
17852;SDS011;9052;53.494;14.376;2023-07-13T09:35:41;1.87;;;1.10;;
17852;SDS011;9052;53.494;14.376;2023-07-13T09:38:12;1.20;;;0.80;;
17852;SDS011;9052;53.494;14.376;2023-07-13T09:40:59;5.83;;;1.17;;
17852;SDS011;9052;53.494;14.376;2023-07-13T09:43:34;1.47;;;0.77;;
17852;SDS011;9052;53.494;14.376;2023-07-13T09:46:01;1.33;;;0.80;;
17852;SDS011;9052;53.494;14.376;2023-07-13T09:48:34;1.00;;;0.83;;
17852;SDS011;9052;53.494;14.376;2023-07-13T09:51:06;1.23;;;1.00;;
17852;SDS011;9052;53.494;14.376;2023-07-13T09:53:41;2.10;;;0.90;;
17852;SDS011;9052;53.494;14.376;2023-07-13T09:56:18;1.33;;;1.13;;
17852;SDS011;9052;53.494;14.376;2023-07-13T09:58:46;4.00;;;1.30;;
17852;SDS011;9052;53.494;14.376;2023-07-13T10:01:13;4.80;;;1.00;;
17852;SDS011;9052;53.494;14.376;2023-07-13T10:03:51;6.20;;;1.23;;
17852;SDS011;9052;53.494;14.376;2023-07-13T10:06:19;4.40;;;1.17;;
17852;SDS011;9052;53.494;14.376;2023-07-13T10:08:47;2.80;;;1.30;;
17852;SDS011;9052;53.494;14.376;2023-07-13T10:11:17;2.13;;;0.87;;
17852;SDS011;9052;53.494;14.376;2023-07-13T10:13:50;2.03;;;1.30;;
17852;SDS011;9052;53.494;14.376;2023-07-13T10:16:19;1.60;;;1.33;;
17852;SDS011;9052;53.494;14.376;2023-07-13T10:18:48;2.30;;;0.90;;
17852;SDS011;9052;53.494;14.376;2023-07-13T10:21:18;1.43;;;0.97;;
17852;SDS011;9052;53.494;14.376;2023-07-13T10:23:47;2.47;;;1.33;;
17852;SDS011;9052;53.494;14.376;2023-07-13T10:26:22;9.67;;;1.40;;
17852;SDS011;9052;53.494;14.376;2023-07-13T10:28:52;3.93;;;1.43;;
17852;SDS011;9052;53.494;14.376;2023-07-13T10:31:21;3.50;;;1.57;;
17852;SDS011;9052;53.494;14.376;2023-07-13T10:33:50;8.90;;;1.63;;
17852;SDS011;9052;53.494;14.376;2023-07-13T10:36:22;2.70;;;1.30;;
17852;SDS011;9052;53.494;14.376;2023-07-13T10:38:57;2.30;;;1.33;;
17852;SDS011;9052;53.494;14.376;2023-07-13T10:41:25;5.40;;;1.20;;
17852;SDS011;9052;53.494;14.376;2023-07-13T10:43:54;1.70;;;1.33;;
17852;SDS011;9052;53.494;14.376;2023-07-13T10:46:23;2.37;;;1.23;;
17852;SDS011;9052;53.494;14.376;2023-07-13T10:48:55;1.90;;;1.27;;
17852;SDS011;9052;53.494;14.376;2023-07-13T10:51:24;4.00;;;1.50;;
17852;SDS011;9052;53.494;14.376;2023-07-13T10:54:11;1.17;;;1.07;;
17852;SDS011;9052;53.494;14.376;2023-07-13T10:56:48;2.70;;;1.07;;
17852;SDS011;9052;53.494;14.376;2023-07-13T10:59:17;1.90;;;1.10;;
17852;SDS011;9052;53.494;14.376;2023-07-13T11:01:48;3.73;;;1.50;;
17852;SDS011;9052;53.494;14.376;2023-07-13T11:04:19;3.07;;;1.80;;
17852;SDS011;9052;53.494;14.376;2023-07-13T11:06:48;3.80;;;1.70;;
17852;SDS011;9052;53.494;14.376;2023-07-13T11:09:19;3.97;;;1.30;;
17852;SDS011;9052;53.494;14.376;2023-07-13T11:11:56;2.50;;;1.30;;
17852;SDS011;9052;53.494;14.376;2023-07-13T11:14:27;2.37;;;1.40;;
17852;SDS011;9052;53.494;14.376;2023-07-13T11:17:05;3.03;;;0.93;;
17852;SDS011;9052;53.494;14.376;2023-07-13T11:19:53;3.43;;;1.20;;
17852;SDS011;9052;53.494;14.376;2023-07-13T11:22:24;9.73;;;1.20;;
17852;SDS011;9052;53.494;14.376;2023-07-13T11:25:02;2.60;;;1.20;;
17852;SDS011;9052;53.494;14.376;2023-07-13T11:27:50;10.63;;;1.70;;
17852;SDS011;9052;53.494;14.376;2023-07-13T11:30:22;2.47;;;1.60;;
17852;SDS011;9052;53.494;14.376;2023-07-13T11:32:52;7.20;;;1.07;;
17852;SDS011;9052;53.494;14.376;2023-07-13T11:35:32;3.27;;;1.57;;
17852;SDS011;9052;53.494;14.376;2023-07-13T11:38:02;3.03;;;1.50;;
17852;SDS011;9052;53.494;14.376;2023-07-13T11:40:29;2.60;;;1.40;;
17852;SDS011;9052;53.494;14.376;2023-07-13T11:43:00;3.27;;;1.37;;
17852;SDS011;9052;53.494;14.376;2023-07-13T11:45:27;2.00;;;1.23;;
17852;SDS011;9052;53.494;14.376;2023-07-13T11:47:54;1.37;;;1.10;;
17852;SDS011;9052;53.494;14.376;2023-07-13T11:50:25;6.63;;;1.47;;
17852;SDS011;9052;53.494;14.376;2023-07-13T11:52:53;5.90;;;1.67;;
17852;SDS011;9052;53.494;14.376;2023-07-13T11:55:21;9.83;;;1.37;;
17852;SDS011;9052;53.494;14.376;2023-07-13T11:57:51;3.07;;;1.40;;
17852;SDS011;9052;53.494;14.376;2023-07-13T12:00:21;2.20;;;1.20;;
17852;SDS011;9052;53.494;14.376;2023-07-13T12:02:55;18.13;;;1.77;;
17852;SDS011;9052;53.494;14.376;2023-07-13T12:05:24;3.77;;;1.20;;
17852;SDS011;9052;53.494;14.376;2023-07-13T12:07:51;3.07;;;1.30;;
17852;SDS011;9052;53.494;14.376;2023-07-13T12:10:21;8.43;;;1.40;;
17852;SDS011;9052;53.494;14.376;2023-07-13T12:12:51;3.50;;;1.07;;
17852;SDS011;9052;53.494;14.376;2023-07-13T12:15:19;3.03;;;1.30;;
17852;SDS011;9052;53.494;14.376;2023-07-13T12:17:47;5.37;;;1.57;;
17852;SDS011;9052;53.494;14.376;2023-07-13T12:20:18;2.30;;;1.43;;
17852;SDS011;9052;53.494;14.376;2023-07-13T12:22:49;2.17;;;1.40;;
17852;SDS011;9052;53.494;14.376;2023-07-13T12:25:17;7.43;;;1.87;;
17852;SDS011;9052;53.494;14.376;2023-07-13T12:27:47;14.87;;;1.70;;
17852;SDS011;9052;53.494;14.376;2023-07-13T12:30:22;6.30;;;1.80;;
17852;SDS011;9052;53.494;14.376;2023-07-13T12:33:02;5.73;;;1.43;;
17852;SDS011;9052;53.494;14.376;2023-07-13T12:35:38;6.33;;;2.23;;
17852;SDS011;9052;53.494;14.376;2023-07-13T12:38:07;10.53;;;1.30;;
17852;SDS011;9052;53.494;14.376;2023-07-13T12:40:35;1.80;;;1.43;;
17852;SDS011;9052;53.494;14.376;2023-07-13T12:43:04;3.03;;;1.10;;
17852;SDS011;9052;53.494;14.376;2023-07-13T12:45:32;3.13;;;1.03;;
17852;SDS011;9052;53.494;14.376;2023-07-13T12:48:02;9.83;;;1.77;;
17852;SDS011;9052;53.494;14.376;2023-07-13T12:50:36;2.77;;;1.60;;
17852;SDS011;9052;53.494;14.376;2023-07-13T12:53:06;3.50;;;1.30;;
17852;SDS011;9052;53.494;14.376;2023-07-13T12:55:40;3.23;;;1.50;;
17852;SDS011;9052;53.494;14.376;2023-07-13T12:58:13;11.67;;;1.43;;
17852;SDS011;9052;53.494;14.376;2023-07-13T13:00:48;3.63;;;1.20;;
17852;SDS011;9052;53.494;14.376;2023-07-13T13:03:20;4.70;;;1.33;;
17852;SDS011;9052;53.494;14.376;2023-07-13T13:05:49;2.17;;;0.83;;
17852;SDS011;9052;53.494;14.376;2023-07-13T13:08:16;4.63;;;1.80;;
17852;SDS011;9052;53.494;14.376;2023-07-13T13:10:42;6.90;;;1.33;;
17852;SDS011;9052;53.494;14.376;2023-07-13T13:13:12;2.17;;;1.50;;
17852;SDS011;9052;53.494;14.376;2023-07-13T13:15:39;4.33;;;1.20;;
17852;SDS011;9052;53.494;14.376;2023-07-13T13:18:09;1.73;;;1.10;;
17852;SDS011;9052;53.494;14.376;2023-07-13T13:20:43;2.27;;;1.40;;
17852;SDS011;9052;53.494;14.376;2023-07-13T13:23:12;3.37;;;2.10;;
17852;SDS011;9052;53.494;14.376;2023-07-13T13:25:42;4.33;;;1.70;;
17852;SDS011;9052;53.494;14.376;2023-07-13T13:28:14;2.60;;;1.13;;
17852;SDS011;9052;53.494;14.376;2023-07-13T13:30:43;4.20;;;2.07;;
17852;SDS011;9052;53.494;14.376;2023-07-13T13:33:10;24.07;;;2.67;;
17852;SDS011;9052;53.494;14.376;2023-07-13T13:35:38;3.30;;;1.73;;
17852;SDS011;9052;53.494;14.376;2023-07-13T13:38:09;4.57;;;2.03;;
17852;SDS011;9052;53.494;14.376;2023-07-13T13:40:37;5.17;;;2.10;;
17852;SDS011;9052;53.494;14.376;2023-07-13T13:43:08;5.30;;;1.47;;
17852;SDS011;9052;53.494;14.376;2023-07-13T13:45:42;4.40;;;1.90;;
17852;SDS011;9052;53.494;14.376;2023-07-13T13:48:13;6.47;;;1.60;;
17852;SDS011;9052;53.494;14.376;2023-07-13T13:50:41;3.60;;;1.47;;
17852;SDS011;9052;53.494;14.376;2023-07-13T13:53:09;2.77;;;1.63;;
17852;SDS011;9052;53.494;14.376;2023-07-13T13:55:37;6.73;;;1.33;;
17852;SDS011;9052;53.494;14.376;2023-07-13T13:58:04;5.23;;;1.10;;
17852;SDS011;9052;53.494;14.376;2023-07-13T14:00:32;1.60;;;1.23;;
17852;SDS011;9052;53.494;14.376;2023-07-13T14:03:00;3.47;;;1.73;;
17852;SDS011;9052;53.494;14.376;2023-07-13T14:05:27;6.53;;;1.23;;
17852;SDS011;9052;53.494;14.376;2023-07-13T14:07:55;11.10;;;1.93;;
17852;SDS011;9052;53.494;14.376;2023-07-13T14:10:22;5.23;;;2.00;;
17852;SDS011;9052;53.494;14.376;2023-07-13T14:12:51;4.13;;;1.87;;
17852;SDS011;9052;53.494;14.376;2023-07-13T14:15:20;4.40;;;1.50;;
17852;SDS011;9052;53.494;14.376;2023-07-13T14:17:50;9.70;;;1.50;;
17852;SDS011;9052;53.494;14.376;2023-07-13T14:20:18;3.80;;;1.30;;
17852;SDS011;9052;53.494;14.376;2023-07-13T14:22:47;3.67;;;1.87;;
17852;SDS011;9052;53.494;14.376;2023-07-13T14:25:15;2.70;;;1.50;;
17852;SDS011;9052;53.494;14.376;2023-07-13T14:27:43;8.23;;;1.33;;
17852;SDS011;9052;53.494;14.376;2023-07-13T14:30:14;2.23;;;1.40;;
17852;SDS011;9052;53.494;14.376;2023-07-13T14:32:42;2.20;;;1.63;;
17852;SDS011;9052;53.494;14.376;2023-07-13T14:35:12;5.63;;;2.00;;
17852;SDS011;9052;53.494;14.376;2023-07-13T14:37:40;2.13;;;1.47;;
17852;SDS011;9052;53.494;14.376;2023-07-13T14:40:14;11.87;;;2.00;;
17852;SDS011;9052;53.494;14.376;2023-07-13T14:42:42;4.90;;;1.63;;
17852;SDS011;9052;53.494;14.376;2023-07-13T14:45:13;7.30;;;1.73;;
17852;SDS011;9052;53.494;14.376;2023-07-13T14:47:41;7.17;;;2.00;;
17852;SDS011;9052;53.494;14.376;2023-07-13T14:50:14;6.93;;;1.90;;
17852;SDS011;9052;53.494;14.376;2023-07-13T14:52:42;7.40;;;2.00;;
17852;SDS011;9052;53.494;14.376;2023-07-13T14:55:11;5.00;;;1.40;;